sensor_id;sensor_type;location;lat;lon;timestamp;pressure;altitude;pressure_sealevel;temperature;humidity
7614;BME280;3848;42.016;23.098;2022-10-16T00:01:35;97759.56;;;9.78;100.00
7614;BME280;3848;42.016;23.098;2022-10-16T00:04:03;97756.16;;;9.74;100.00
7614;BME280;3848;42.016;23.098;2022-10-16T00:06:30;97757.84;;;9.72;100.00
7614;BME280;3848;42.016;23.098;2022-10-16T00:08:57;97762.06;;;9.72;100.00
7614;BME280;3848;42.016;23.098;2022-10-16T00:11:27;97757.81;;;9.66;100.00
7614;BME280;3848;42.016;23.098;2022-10-16T00:13:56;97752.66;;;9.51;100.00
7614;BME280;3848;42.016;23.098;2022-10-16T00:16:23;97763.63;;;9.47;100.00
7614;BME280;3848;42.016;23.098;2022-10-16T00:18:50;97773.78;;;9.50;100.00
7614;BME280;3848;42.016;23.098;2022-10-16T00:21:19;97773.78;;;9.48;100.00
7614;BME280;3848;42.016;23.098;2022-10-16T00:23:50;97772.94;;;9.51;100.00
7614;BME280;3848;42.016;23.098;2022-10-16T00:26:18;97778.00;;;9.46;100.00
7614;BME280;3848;42.016;23.098;2022-10-16T00:28:46;97743.16;;;9.20;100.00
7614;BME280;3848;42.016;23.098;2022-10-16T00:31:14;97763.50;;;9.30;100.00
7614;BME280;3848;42.016;23.098;2022-10-16T00:33:41;97776.19;;;9.32;100.00
7614;BME280;3848;42.016;23.098;2022-10-16T00:36:10;97780.41;;;9.31;100.00
7614;BME280;3848;42.016;23.098;2022-10-16T00:38:37;97769.38;;;9.23;100.00
7614;BME280;3848;42.016;23.098;2022-10-16T00:41:05;97782.94;;;9.31;100.00
7614;BME280;3848;42.016;23.098;2022-10-16T00:43:35;97784.66;;;9.32;100.00
7614;BME280;3848;42.016;23.098;2022-10-16T00:46:05;97784.63;;;9.31;100.00
7614;BME280;3848;42.016;23.098;2022-10-16T00:48:32;97793.06;;;9.27;100.00
7614;BME280;3848;42.016;23.098;2022-10-16T00:50:59;97796.41;;;9.20;100.00
7614;BME280;3848;42.016;23.098;2022-10-16T00:53:27;97802.25;;;9.15;100.00
7614;BME280;3848;42.016;23.098;2022-10-16T00:55:54;97795.47;;;9.11;100.00
7614;BME280;3848;42.016;23.098;2022-10-16T00:58:21;97805.59;;;9.10;100.00
7614;BME280;3848;42.016;23.098;2022-10-16T01:00:48;97808.94;;;9.04;100.00
7614;BME280;3848;42.016;23.098;2022-10-16T01:03:28;97804.66;;;8.99;100.00
7614;BME280;3848;42.016;23.098;2022-10-16T01:06:05;97815.66;;;9.01;100.00
7614;BME280;3848;42.016;23.098;2022-10-16T01:08:40;97821.56;;;9.00;100.00
7614;BME280;3848;42.016;23.098;2022-10-16T01:11:19;97807.13;;;8.91;100.00
7614;BME280;3848;42.016;23.098;2022-10-16T01:13:53;97812.22;;;8.94;100.00
7614;BME280;3848;42.016;23.098;2022-10-16T01:16:26;97803.66;;;8.83;100.00
7614;BME280;3848;42.016;23.098;2022-10-16T01:19:05;97808.69;;;8.77;100.00
7614;BME280;3848;42.016;23.098;2022-10-16T01:21:39;97808.72;;;8.80;100.00
7614;BME280;3848;42.016;23.098;2022-10-16T01:24:11;97807.06;;;8.83;100.00
7614;BME280;3848;42.016;23.098;2022-10-16T01:26:59;97815.38;;;8.72;100.00
7614;BME280;3848;42.016;23.098;2022-10-16T01:29:29;97818.72;;;8.71;100.00
7614;BME280;3848;42.016;23.098;2022-10-16T01:32:07;97795.84;;;8.62;100.00
7614;BME280;3848;42.016;23.098;2022-10-16T01:34:39;97796.69;;;8.59;100.00
7614;BME280;3848;42.016;23.098;2022-10-16T01:37:13;97821.34;;;8.75;100.00
7614;BME280;3848;42.016;23.098;2022-10-16T01:39:45;97818.00;;;8.79;100.00
7614;BME280;3848;42.016;23.098;2022-10-16T01:42:17;97814.63;;;8.79;100.00
7614;BME280;3848;42.016;23.098;2022-10-16T01:44:47;97829.84;;;8.82;100.00
7614;BME280;3848;42.016;23.098;2022-10-16T01:47:15;97821.28;;;8.74;100.00
7614;BME280;3848;42.016;23.098;2022-10-16T01:49:44;97824.63;;;8.67;100.00
7614;BME280;3848;42.016;23.098;2022-10-16T01:52:14;97809.31;;;8.58;100.00
7614;BME280;3848;42.016;23.098;2022-10-16T01:54:46;97819.47;;;8.59;100.00
7614;BME280;3848;42.016;23.098;2022-10-16T01:57:16;97824.53;;;8.58;100.00
7614;BME280;3848;42.016;23.098;2022-10-16T01:59:47;97821.91;;;8.53;100.00
7614;BME280;3848;42.016;23.098;2022-10-16T02:02:17;97811.84;;;8.54;100.00
7614;BME280;3848;42.016;23.098;2022-10-16T02:04:46;97679.22;;;7.71;100.00
7614;BME280;3848;42.016;23.098;2022-10-16T02:07:15;97820.28;;;8.55;100.00
7614;BME280;3848;42.016;23.098;2022-10-16T02:09:43;97827.75;;;8.46;100.00
7614;BME280;3848;42.016;23.098;2022-10-16T02:12:12;97827.72;;;8.41;100.00
7614;BME280;3848;42.016;23.098;2022-10-16T02:14:42;97829.34;;;8.36;100.00
7614;BME280;3848;42.016;23.098;2022-10-16T02:17:14;97820.66;;;8.19;100.00
7614;BME280;3848;42.016;23.098;2022-10-16T02:19:42;97835.84;;;8.17;100.00
7614;BME280;3848;42.016;23.098;2022-10-16T02:22:15;97835.84;;;8.19;100.00
7614;BME280;3848;42.016;23.098;2022-10-16T02:24:49;97834.13;;;8.15;100.00
7614;BME280;3848;42.016;23.098;2022-10-16T02:27:22;97839.06;;;8.09;100.00
7614;BME280;3848;42.016;23.098;2022-10-16T02:29:55;97808.34;;;7.81;100.00
7614;BME280;3848;42.016;23.098;2022-10-16T02:32:29;97839.72;;;7.92;100.00
7614;BME280;3848;42.016;23.098;2022-10-16T02:34:58;97846.34;;;7.86;100.00
7614;BME280;3848;42.016;23.098;2022-10-16T02:37:27;97852.19;;;7.80;100.00
7614;BME280;3848;42.016;23.098;2022-10-16T02:39:56;97859.81;;;7.83;100.00
7614;BME280;3848;42.016;23.098;2022-10-16T02:42:28;97862.34;;;7.83;100.00
7614;BME280;3848;42.016;23.098;2022-10-16T02:44:56;97864.09;;;7.87;100.00
7614;BME280;3848;42.016;23.098;2022-10-16T02:47:23;97840.31;;;7.75;100.00
7614;BME280;3848;42.016;23.098;2022-10-16T02:49:50;97864.13;;;7.90;100.00
7614;BME280;3848;42.016;23.098;2022-10-16T02:52:16;97865.84;;;7.91;100.00
7614;BME280;3848;42.016;23.098;2022-10-16T02:54:43;97859.13;;;7.93;100.00
7614;BME280;3848;42.016;23.098;2022-10-16T02:57:10;97870.13;;;7.95;100.00
7614;BME280;3848;42.016;23.098;2022-10-16T02:59:37;97865.91;;;7.94;100.00
7614;BME280;3848;42.016;23.098;2022-10-16T03:02:05;97871.78;;;7.92;100.00
7614;BME280;3848;42.016;23.098;2022-10-16T03:04:32;97862.38;;;7.86;100.00
7614;BME280;3848;42.016;23.098;2022-10-16T03:06:59;97872.44;;;7.80;100.00
7614;BME280;3848;42.016;23.098;2022-10-16T03:09:25;97801.84;;;7.40;100.00
7614;BME280;3848;42.016;23.098;2022-10-16T03:11:52;97884.16;;;7.75;100.00
7614;BME280;3848;42.016;23.098;2022-10-16T03:14:19;97880.66;;;7.67;100.00
7614;BME280;3848;42.016;23.098;2022-10-16T03:16:46;97892.63;;;7.77;100.00
7614;BME280;3848;42.016;23.098;2022-10-16T03:19:15;97870.50;;;7.64;100.00
7614;BME280;3848;42.016;23.098;2022-10-16T03:21:42;97883.34;;;7.76;100.00
7614;BME280;3848;42.016;23.098;2022-10-16T03:24:09;97877.38;;;7.71;100.00
7614;BME280;3848;42.016;23.098;2022-10-16T03:26:36;97876.53;;;7.72;100.00
7614;BME280;3848;42.016;23.098;2022-10-16T03:29:03;97881.31;;;7.54;100.00
7614;BME280;3848;42.016;23.098;2022-10-16T03:31:30;97877.13;;;7.56;100.00
7614;BME280;3848;42.016;23.098;2022-10-16T03:33:57;97872.09;;;7.59;100.00
7614;BME280;3848;42.016;23.098;2022-10-16T03:36:25;97879.72;;;7.60;100.00
7614;BME280;3848;42.016;23.098;2022-10-16T03:38:52;97882.25;;;7.62;100.00
7614;BME280;3848;42.016;23.098;2022-10-16T03:41:19;97875.53;;;7.64;100.00
7614;BME280;3848;42.016;23.098;2022-10-16T03:43:46;97877.19;;;7.62;100.00
7614;BME280;3848;42.016;23.098;2022-10-16T03:46:13;97880.59;;;7.64;100.00
7614;BME280;3848;42.016;23.098;2022-10-16T03:48:39;97877.25;;;7.65;100.00
7614;BME280;3848;42.016;23.098;2022-10-16T03:51:06;97885.69;;;7.65;100.00
7614;BME280;3848;42.016;23.098;2022-10-16T03:53:34;97875.41;;;7.53;100.00
7614;BME280;3848;42.016;23.098;2022-10-16T03:56:01;97869.22;;;7.36;100.00
7614;BME280;3848;42.016;23.098;2022-10-16T03:58:28;97880.16;;;7.37;100.00
7614;BME280;3848;42.016;23.098;2022-10-16T04:00:55;97880.00;;;7.27;100.00
7614;BME280;3848;42.016;23.098;2022-10-16T04:03:21;97882.50;;;7.26;100.00
7614;BME280;3848;42.016;23.098;2022-10-16T04:05:48;97867.09;;;7.11;100.00
7614;BME280;3848;42.016;23.098;2022-10-16T04:08:16;97883.31;;;7.23;100.00
7614;BME280;3848;42.016;23.098;2022-10-16T04:10:45;97889.13;;;7.19;100.00
7614;BME280;3848;42.016;23.098;2022-10-16T04:13:12;97887.56;;;7.26;100.00
7614;BME280;3848;42.016;23.098;2022-10-16T04:15:39;97896.81;;;7.25;100.00
7614;BME280;3848;42.016;23.098;2022-10-16T04:18:06;97887.47;;;7.20;100.00
7614;BME280;3848;42.016;23.098;2022-10-16T04:20:33;97882.38;;;7.18;100.00
7614;BME280;3848;42.016;23.098;2022-10-16T04:23:00;97879.81;;;7.15;100.00
7614;BME280;3848;42.016;23.098;2022-10-16T04:25:27;97883.16;;;7.14;100.00
7614;BME280;3848;42.016;23.098;2022-10-16T04:27:55;97887.41;;;7.17;100.00
7614;BME280;3848;42.016;23.098;2022-10-16T04:30:22;97879.81;;;7.15;100.00
7614;BME280;3848;42.016;23.098;2022-10-16T04:32:50;97879.78;;;7.14;100.00
7614;BME280;3848;42.016;23.098;2022-10-16T04:35:17;97879.00;;;7.18;100.00
7614;BME280;3848;42.016;23.098;2022-10-16T04:37:44;97880.59;;;7.11;100.00
7614;BME280;3848;42.016;23.098;2022-10-16T04:40:11;97886.56;;;7.16;100.00
7614;BME280;3848;42.016;23.098;2022-10-16T04:42:38;97888.22;;;7.14;100.00
7614;BME280;3848;42.016;23.098;2022-10-16T04:45:08;97884.63;;;7.03;100.00
7614;BME280;3848;42.016;23.098;2022-10-16T04:47:35;97887.06;;;6.97;100.00
7614;BME280;3848;42.016;23.098;2022-10-16T04:50:02;97885.38;;;6.97;100.00
7614;BME280;3848;42.016;23.098;2022-10-16T04:52:28;97872.78;;;6.99;100.00
7614;BME280;3848;42.016;23.098;2022-10-16T04:54:56;97884.75;;;7.09;100.00
7614;BME280;3848;42.016;23.098;2022-10-16T04:57:26;97885.53;;;7.07;100.00
7614;BME280;3848;42.016;23.098;2022-10-16T04:59:53;97882.19;;;7.08;100.00
7614;BME280;3848;42.016;23.098;2022-10-16T05:02:21;97889.88;;;7.12;100.00
7614;BME280;3848;42.016;23.098;2022-10-16T05:04:48;97878.63;;;6.96;100.00
7614;BME280;3848;42.016;23.098;2022-10-16T05:07:15;97896.63;;;7.13;100.00
7614;BME280;3848;42.016;23.098;2022-10-16T05:09:42;97900.84;;;7.14;100.00
7614;BME280;3848;42.016;23.098;2022-10-16T05:12:08;97893.22;;;7.11;100.00
7614;BME280;3848;42.016;23.098;2022-10-16T05:14:35;97905.16;;;7.20;100.00
7614;BME280;3848;42.016;23.098;2022-10-16T05:17:02;97904.16;;;7.10;100.00
7614;BME280;3848;42.016;23.098;2022-10-16T05:19:30;97919.22;;;7.06;100.00
7614;BME280;3848;42.016;23.098;2022-10-16T05:21:57;97911.41;;;6.93;100.00
7614;BME280;3848;42.016;23.098;2022-10-16T05:24:24;97910.56;;;6.93;100.00
7614;BME280;3848;42.016;23.098;2022-10-16T05:26:51;97916.31;;;6.86;100.00
7614;BME280;3848;42.016;23.098;2022-10-16T05:29:18;97891.66;;;6.72;100.00
7614;BME280;3848;42.016;23.098;2022-10-16T05:31:45;97929.91;;;6.91;100.00
7614;BME280;3848;42.016;23.098;2022-10-16T05:34:12;97876.25;;;6.60;100.00
7614;BME280;3848;42.016;23.098;2022-10-16T05:36:40;97927.41;;;6.92;100.00
7614;BME280;3848;42.016;23.098;2022-10-16T05:39:07;97928.19;;;6.90;100.00
7614;BME280;3848;42.016;23.098;2022-10-16T05:41:34;97949.31;;;6.93;100.00
7614;BME280;3848;42.016;23.098;2022-10-16T05:44:04;97940.06;;;6.94;100.00
7614;BME280;3848;42.016;23.098;2022-10-16T05:46:31;97948.63;;;7.02;100.00
7614;BME280;3848;42.016;23.098;2022-10-16T05:48:58;97952.75;;;6.97;100.00
7614;BME280;3848;42.016;23.098;2022-10-16T05:51:25;97939.25;;;6.96;100.00
7614;BME280;3848;42.016;23.098;2022-10-16T05:53:53;97952.16;;;7.10;100.00
7614;BME280;3848;42.016;23.098;2022-10-16T05:56:20;97951.34;;;7.11;100.00
7614;BME280;3848;42.016;23.098;2022-10-16T05:58:46;97952.25;;;7.15;100.00
7614;BME280;3848;42.016;23.098;2022-10-16T06:01:14;97952.38;;;7.22;100.00
7614;BME280;3848;42.016;23.098;2022-10-16T06:03:41;97954.13;;;7.26;100.00
7614;BME280;3848;42.016;23.098;2022-10-16T06:06:09;97955.84;;;7.27;100.00
7614;BME280;3848;42.016;23.098;2022-10-16T06:08:36;97945.72;;;7.27;100.00
7614;BME280;3848;42.016;23.098;2022-10-16T06:11:06;97941.59;;;7.31;100.00
7614;BME280;3848;42.016;23.098;2022-10-16T06:13:33;97960.41;;;7.48;100.00
7614;BME280;3848;42.016;23.098;2022-10-16T06:16:01;97964.81;;;7.57;100.00
7614;BME280;3848;42.016;23.098;2022-10-16T06:18:29;97973.47;;;7.71;100.00
7614;BME280;3848;42.016;23.098;2022-10-16T06:20:56;97976.88;;;7.72;100.00
7614;BME280;3848;42.016;23.098;2022-10-16T06:23:24;97972.56;;;7.69;100.00
7614;BME280;3848;42.016;23.098;2022-10-16T06:25:51;97971.66;;;7.64;100.00
7614;BME280;3848;42.016;23.098;2022-10-16T06:28:19;97986.19;;;7.76;100.00
7614;BME280;3848;42.016;23.098;2022-10-16T06:30:46;97985.41;;;7.78;100.00
7614;BME280;3848;42.016;23.098;2022-10-16T06:33:12;97993.88;;;7.82;100.00
7614;BME280;3848;42.016;23.098;2022-10-16T06:35:39;97998.13;;;7.84;100.00
7614;BME280;3848;42.016;23.098;2022-10-16T06:38:06;97986.31;;;7.83;100.00
7614;BME280;3848;42.016;23.098;2022-10-16T06:40:33;98011.09;;;8.03;100.00
7614;BME280;3848;42.016;23.098;2022-10-16T06:43:00;98001.09;;;8.12;100.00
7614;BME280;3848;42.016;23.098;2022-10-16T06:45:28;97990.19;;;8.13;100.00
7614;BME280;3848;42.016;23.098;2022-10-16T06:47:55;98011.72;;;8.39;100.00
7614;BME280;3848;42.016;23.098;2022-10-16T06:50:21;98004.09;;;8.39;100.00
7614;BME280;3848;42.016;23.098;2022-10-16T06:52:49;97992.34;;;8.43;100.00
7614;BME280;3848;42.016;23.098;2022-10-16T06:55:15;98007.84;;;8.66;100.00
7614;BME280;3848;42.016;23.098;2022-10-16T06:57:42;98010.38;;;8.66;100.00
7614;BME280;3848;42.016;23.098;2022-10-16T07:00:10;98013.84;;;8.74;100.00
7614;BME280;3848;42.016;23.098;2022-10-16T07:02:38;98014.00;;;8.83;100.00
7614;BME280;3848;42.016;23.098;2022-10-16T07:05:05;98012.34;;;8.85;100.00
7614;BME280;3848;42.016;23.098;2022-10-16T07:07:32;98009.06;;;8.95;100.00
7614;BME280;3848;42.016;23.098;2022-10-16T07:09:59;98012.59;;;9.06;100.00
7614;BME280;3848;42.016;23.098;2022-10-16T07:12:26;98018.59;;;9.14;100.00
7614;BME280;3848;42.016;23.098;2022-10-16T07:14:53;98023.03;;;9.31;100.00
7614;BME280;3848;42.016;23.098;2022-10-16T07:17:21;98023.91;;;9.34;100.00
7614;BME280;3848;42.016;23.098;2022-10-16T07:19:49;98024.81;;;9.38;100.00
7614;BME280;3848;42.016;23.098;2022-10-16T07:22:18;98019.78;;;9.41;100.00
7614;BME280;3848;42.016;23.098;2022-10-16T07:24:45;98016.47;;;9.50;100.00
7614;BME280;3848;42.016;23.098;2022-10-16T07:27:12;98018.28;;;9.60;100.00
7614;BME280;3848;42.016;23.098;2022-10-16T07:29:39;98024.25;;;9.66;100.00
7614;BME280;3848;42.016;23.098;2022-10-16T07:32:05;98011.59;;;9.69;100.00
7614;BME280;3848;42.016;23.098;2022-10-16T07:34:32;98010.88;;;9.80;100.00
7614;BME280;3848;42.016;23.098;2022-10-16T07:37:00;98019.44;;;9.94;100.00
7614;BME280;3848;42.016;23.098;2022-10-16T07:39:27;98017.00;;;10.03;100.00
7614;BME280;3848;42.016;23.098;2022-10-16T07:41:54;98000.06;;;10.03;100.00
7614;BME280;3848;42.016;23.098;2022-10-16T07:44:21;98024.00;;;10.28;100.00
7614;BME280;3848;42.016;23.098;2022-10-16T07:46:48;98015.56;;;10.38;100.00
7614;BME280;3848;42.016;23.098;2022-10-16T07:49:15;98010.59;;;10.52;100.00
7614;BME280;3848;42.016;23.098;2022-10-16T07:51:41;97996.22;;;10.56;100.00
7614;BME280;3848;42.016;23.098;2022-10-16T07:54:10;98020.03;;;10.70;100.00
7614;BME280;3848;42.016;23.098;2022-10-16T07:56:37;98017.53;;;10.79;100.00
7614;BME280;3848;42.016;23.098;2022-10-16T07:59:03;98005.72;;;10.84;100.00
7614;BME280;3848;42.016;23.098;2022-10-16T08:01:30;98017.69;;;11.05;100.00
7614;BME280;3848;42.016;23.098;2022-10-16T08:03:57;98016.88;;;11.21;100.00
7614;BME280;3848;42.016;23.098;2022-10-16T08:06:24;97999.09;;;11.29;100.00
7614;BME280;3848;42.016;23.098;2022-10-16T08:08:51;98016.13;;;11.54;100.00
7614;BME280;3848;42.016;23.098;2022-10-16T08:11:19;98002.59;;;11.71;100.00
7614;BME280;3848;42.016;23.098;2022-10-16T08:13:46;98011.97;;;11.81;100.00
7614;BME280;3848;42.016;23.098;2022-10-16T08:16:13;98010.28;;;11.95;100.00
7614;BME280;3848;42.016;23.098;2022-10-16T08:18:40;98004.38;;;12.08;100.00
7614;BME280;3848;42.016;23.098;2022-10-16T08:21:12;98001.78;;;12.27;100.00
7614;BME280;3848;42.016;23.098;2022-10-16T08:23:39;97991.59;;;12.37;100.00
7614;BME280;3848;42.016;23.098;2022-10-16T08:26:07;98000.06;;;12.58;100.00
7614;BME280;3848;42.016;23.098;2022-10-16T08:28:36;97992.38;;;12.71;100.00
7614;BME280;3848;42.016;23.098;2022-10-16T08:31:07;97986.41;;;12.80;100.00
7614;BME280;3848;42.016;23.098;2022-10-16T08:33:35;97994.03;;;12.85;100.00
7614;BME280;3848;42.016;23.098;2022-10-16T08:36:03;97982.13;;;12.91;100.00
7614;BME280;3848;42.016;23.098;2022-10-16T08:38:30;97980.34;;;13.07;100.00
7614;BME280;3848;42.016;23.098;2022-10-16T08:41:08;97993.88;;;13.30;100.00
7614;BME280;3848;42.016;23.098;2022-10-16T08:43:52;97984.47;;;13.41;100.00
7614;BME280;3848;42.016;23.098;2022-10-16T08:46:30;97978.44;;;13.55;100.00
7614;BME280;3848;42.016;23.098;2022-10-16T08:49:02;97989.34;;;13.78;100.00
7614;BME280;3848;42.016;23.098;2022-10-16T08:51:31;97990.84;;;14.03;100.00
7614;BME280;3848;42.016;23.098;2022-10-16T08:54:01;97981.34;;;14.19;100.00
7614;BME280;3848;42.016;23.098;2022-10-16T08:56:29;97973.59;;;14.28;100.00
7614;BME280;3848;42.016;23.098;2022-10-16T08:58:58;97971.75;;;14.47;100.00
7614;BME280;3848;42.016;23.098;2022-10-16T09:01:34;97972.47;;;14.61;100.00
7614;BME280;3848;42.016;23.098;2022-10-16T09:04:26;97965.53;;;14.70;100.00
7614;BME280;3848;42.016;23.098;2022-10-16T09:07:02;97963.63;;;14.87;100.00
7614;BME280;3848;42.016;23.098;2022-10-16T09:09:49;97971.00;;;15.11;100.00
7614;BME280;3848;42.016;23.098;2022-10-16T09:12:25;97955.84;;;15.62;100.00
7614;BME280;3848;42.016;23.098;2022-10-16T09:15:02;97959.44;;;16.06;100.00
7614;BME280;3848;42.016;23.098;2022-10-16T09:17:39;97958.81;;;16.89;100.00
7614;BME280;3848;42.016;23.098;2022-10-16T09:20:19;97954.34;;;17.77;93.55
7614;BME280;3848;42.016;23.098;2022-10-16T09:22:47;97956.53;;;18.61;82.54
7614;BME280;3848;42.016;23.098;2022-10-16T09:25:15;97934.06;;;18.98;83.09
7614;BME280;3848;42.016;23.098;2022-10-16T09:27:44;97950.34;;;19.58;68.36
7614;BME280;3848;42.016;23.098;2022-10-16T09:30:15;97941.94;;;19.79;63.71
7614;BME280;3848;42.016;23.098;2022-10-16T09:32:44;97943.31;;;20.16;61.83
7614;BME280;3848;42.016;23.098;2022-10-16T09:35:15;97934.31;;;20.77;63.23
7614;BME280;3848;42.016;23.098;2022-10-16T09:37:44;97929.72;;;21.32;58.05
7614;BME280;3848;42.016;23.098;2022-10-16T09:40:13;97925.50;;;21.73;57.51
7614;BME280;3848;42.016;23.098;2022-10-16T09:42:40;97920.44;;;22.14;57.06
7614;BME280;3848;42.016;23.098;2022-10-16T09:45:21;97921.84;;;22.21;51.36
7614;BME280;3848;42.016;23.098;2022-10-16T09:47:49;97918.41;;;22.41;51.21
7614;BME280;3848;42.016;23.098;2022-10-16T09:50:22;97912.38;;;22.61;50.48
7614;BME280;3848;42.016;23.098;2022-10-16T09:52:50;97908.72;;;22.85;51.62
7614;BME280;3848;42.016;23.098;2022-10-16T09:55:18;97902.56;;;23.25;51.14
7614;BME280;3848;42.016;23.098;2022-10-16T09:57:51;97888.16;;;23.73;49.14
7614;BME280;3848;42.016;23.098;2022-10-16T10:00:21;97901.72;;;23.97;47.79
7614;BME280;3848;42.016;23.098;2022-10-16T10:02:48;97891.19;;;24.35;46.00
7614;BME280;3848;42.016;23.098;2022-10-16T10:05:21;97894.50;;;24.54;46.90
7614;BME280;3848;42.016;23.098;2022-10-16T10:07:54;97872.00;;;24.20;44.75
7614;BME280;3848;42.016;23.098;2022-10-16T10:10:24;97877.16;;;24.54;44.27
7614;BME280;3848;42.016;23.098;2022-10-16T10:12:52;97825.34;;;24.51;43.98
7614;BME280;3848;42.016;23.098;2022-10-16T10:15:22;97869.22;;;24.57;43.75
7614;BME280;3848;42.016;23.098;2022-10-16T10:17:51;97859.66;;;24.74;43.63
7614;BME280;3848;42.016;23.098;2022-10-16T10:20:24;97862.97;;;24.93;43.39
7614;BME280;3848;42.016;23.098;2022-10-16T10:22:51;97854.50;;;24.89;42.16
7614;BME280;3848;42.016;23.098;2022-10-16T10:25:37;97858.75;;;24.75;43.15
7614;BME280;3848;42.016;23.098;2022-10-16T10:28:28;97857.66;;;24.63;43.06
7614;BME280;3848;42.016;23.098;2022-10-16T10:31:05;97862.00;;;24.62;42.96
7614;BME280;3848;42.016;23.098;2022-10-16T10:33:41;97865.75;;;24.41;42.98
7614;BME280;3848;42.016;23.098;2022-10-16T10:36:27;97856.19;;;24.07;42.22
7614;BME280;3848;42.016;23.098;2022-10-16T10:38:58;97856.34;;;24.54;44.38
7614;BME280;3848;42.016;23.098;2022-10-16T10:42:10;97836.69;;;24.99;43.05
7614;BME280;3848;42.016;23.098;2022-10-16T10:44:53;97853.19;;;25.60;41.35
7614;BME280;3848;42.016;23.098;2022-10-16T10:47:31;97845.84;;;25.68;40.20
7614;BME280;3848;42.016;23.098;2022-10-16T10:50:13;97832.88;;;25.66;39.64
7614;BME280;3848;42.016;23.098;2022-10-16T10:52:49;97837.06;;;25.85;41.83
7614;BME280;3848;42.016;23.098;2022-10-16T10:55:24;97837.91;;;25.99;39.28
7614;BME280;3848;42.016;23.098;2022-10-16T10:58:14;97831.25;;;25.79;39.69
7614;BME280;3848;42.016;23.098;2022-10-16T11:00:52;97828.66;;;25.79;39.64
7614;BME280;3848;42.016;23.098;2022-10-16T11:03:39;97824.56;;;25.75;39.61
7614;BME280;3848;42.016;23.098;2022-10-16T11:06:12;97820.22;;;25.90;39.46
7614;BME280;3848;42.016;23.098;2022-10-16T11:08:46;97825.38;;;26.06;38.88
7614;BME280;3848;42.016;23.098;2022-10-16T11:11:18;97820.50;;;26.00;39.68
7614;BME280;3848;42.016;23.098;2022-10-16T11:13:53;97817.28;;;26.10;39.91
7614;BME280;3848;42.016;23.098;2022-10-16T11:16:26;97806.53;;;26.45;39.52
7614;BME280;3848;42.016;23.098;2022-10-16T11:18:59;97806.09;;;26.80;39.11
7614;BME280;3848;42.016;23.098;2022-10-16T11:21:31;97806.81;;;26.96;38.74
7614;BME280;3848;42.016;23.098;2022-10-16T11:24:09;97799.81;;;27.11;38.27
7614;BME280;3848;42.016;23.098;2022-10-16T11:26:42;97794.88;;;27.33;37.04
7614;BME280;3848;42.016;23.098;2022-10-16T11:29:14;97782.78;;;26.91;36.76
7614;BME280;3848;42.016;23.098;2022-10-16T11:31:46;97787.22;;;26.62;37.24
7614;BME280;3848;42.016;23.098;2022-10-16T11:34:21;97782.59;;;26.53;37.67
7614;BME280;3848;42.016;23.098;2022-10-16T11:36:53;97771.38;;;26.65;38.11
7614;BME280;3848;42.016;23.098;2022-10-16T11:39:24;97781.44;;;26.71;38.18
7614;BME280;3848;42.016;23.098;2022-10-16T11:41:54;97781.47;;;26.84;37.72
7614;BME280;3848;42.016;23.098;2022-10-16T11:44:34;97778.00;;;26.70;37.24
7614;BME280;3848;42.016;23.098;2022-10-16T11:47:11;97771.84;;;26.57;37.69
7614;BME280;3848;42.016;23.098;2022-10-16T11:49:41;97765.50;;;26.61;39.02
7614;BME280;3848;42.016;23.098;2022-10-16T11:52:14;97770.06;;;26.72;38.57
7614;BME280;3848;42.016;23.098;2022-10-16T11:54:47;97770.69;;;26.90;38.14
7614;BME280;3848;42.016;23.098;2022-10-16T11:57:18;97753.59;;;26.98;37.13
7614;BME280;3848;42.016;23.098;2022-10-16T11:59:50;97727.53;;;26.57;37.33
7614;BME280;3848;42.016;23.098;2022-10-16T12:05:21;97740.19;;;26.63;37.48
7614;BME280;3848;42.016;23.098;2022-10-16T12:07:56;97748.06;;;26.49;37.30
7614;BME280;3848;42.016;23.098;2022-10-16T12:10:29;97758.53;;;26.33;37.88
7614;BME280;3848;42.016;23.098;2022-10-16T12:12:57;97756.97;;;26.31;38.00
7614;BME280;3848;42.016;23.098;2022-10-16T12:15:25;97751.13;;;26.27;38.59
7614;BME280;3848;42.016;23.098;2022-10-16T12:17:53;97749.34;;;26.13;38.20
7614;BME280;3848;42.016;23.098;2022-10-16T12:20:25;97758.38;;;26.36;40.52
7614;BME280;3848;42.016;23.098;2022-10-16T12:22:54;97749.13;;;26.02;38.39
7614;BME280;3848;42.016;23.098;2022-10-16T12:25:24;97748.06;;;26.06;38.51
7614;BME280;3848;42.016;23.098;2022-10-16T12:27:59;97755.78;;;26.08;39.52
7614;BME280;3848;42.016;23.098;2022-10-16T12:30:28;97752.66;;;25.73;38.47
7614;BME280;3848;42.016;23.098;2022-10-16T12:32:56;97749.22;;;25.42;39.19
7614;BME280;3848;42.016;23.098;2022-10-16T12:35:27;97742.13;;;25.30;39.76
7614;BME280;3848;42.016;23.098;2022-10-16T12:38:05;97744.88;;;25.43;40.04
7614;BME280;3848;42.016;23.098;2022-10-16T12:40:34;97750.81;;;25.59;40.28
7614;BME280;3848;42.016;23.098;2022-10-16T12:43:12;97741.69;;;25.82;38.85
7614;BME280;3848;42.016;23.098;2022-10-16T12:45:39;97738.56;;;26.05;39.13
7614;BME280;3848;42.016;23.098;2022-10-16T12:48:20;97736.59;;;26.37;38.34
7614;BME280;3848;42.016;23.098;2022-10-16T12:50:49;97693.59;;;26.30;37.20
7614;BME280;3848;42.016;23.098;2022-10-16T12:53:20;97719.81;;;26.56;37.65
7614;BME280;3848;42.016;23.098;2022-10-16T12:55:55;97727.94;;;26.51;38.95
7614;BME280;3848;42.016;23.098;2022-10-16T12:58:43;97742.06;;;26.33;39.04
7614;BME280;3848;42.016;23.098;2022-10-16T13:01:25;97729.06;;;25.90;37.79
7614;BME280;3848;42.016;23.098;2022-10-16T13:04:14;97739.38;;;25.47;38.91
7614;BME280;3848;42.016;23.098;2022-10-16T13:06:51;97748.44;;;24.94;39.67
7614;BME280;3848;42.016;23.098;2022-10-16T13:09:34;97730.38;;;24.46;41.49
7614;BME280;3848;42.016;23.098;2022-10-16T13:12:23;97745.31;;;24.25;40.75
7614;BME280;3848;42.016;23.098;2022-10-16T13:15:17;97742.97;;;23.87;42.03
7614;BME280;3848;42.016;23.098;2022-10-16T13:17:54;97742.66;;;23.41;41.88
7614;BME280;3848;42.016;23.098;2022-10-16T13:20:29;97750.81;;;23.17;42.84
7614;BME280;3848;42.016;23.098;2022-10-16T13:23:06;97745.75;;;22.96;42.00
7614;BME280;3848;42.016;23.098;2022-10-16T13:25:44;97736.66;;;22.69;42.61
7614;BME280;3848;42.016;23.098;2022-10-16T13:28:14;97737.25;;;22.57;43.95
7614;BME280;3848;42.016;23.098;2022-10-16T13:30:43;97746.34;;;22.46;44.03